Kezdőlap
METAR-TAF:

METAR-TAF

Repülőterek :

Csengtu, Kína

földrajzi szélesség: 30-40N, földrajzi hosszúság: 104-01E, magasság: 508 m

Jelenlegi meteorológiai megfigyelések

A jelentés 1 órával és 11 perccel ezelõtt készült, 14:00 UTC
Szélcsend
Hőmérséklet 18°C
Páratartalom 83%
Légköri nyomás 1022 hPa
Látótávolság: 7000 m
Kevés felhő 1300 lábon
Kevés felhő 2600 lábon, Tornyos gomolyfelhő.
Szakadozott felhőzet 2600 lábon
enyhe záporok

METAR: ZUUU 151400Z 00000MPS 7000 -SHRA FEW013 FEW026TCU BKN026 18/15 Q1022 NOSIG

Idő: 23:11 (15:11 UTC)

Előrejelzés

A jelentés 7 órával és 9 perccel ezelõtt készült, 08:02 UTC
Az előrejelzés 15-én 12 óra UTC és 16-én 12 óra UTC között érvényes
Dél-délnyugati szél 6 kt
Látótávolság: 5000 m
Szórványos felhőzet 5000 lábon
Párásság
15-én 14 óra UTC és 15-én 20 óra UTC között ideiglenes
enyhe záporok

TAF: ZUUU 150802Z 1512/1612 20003MPS 5000 BR SCT050 TX20/1607Z TN16/1522Z TEMPO 1514/1520 -SHRA

Meteorológiai megfigyelések és előrejelzések több, mint 4000 repülőtéren (METAR és TAF jelentéseket).

A térképen piros és sárga pontok jelzik az elérhető meteorológiai állomásokat.

Mozgassa az egeret a pont fölött, hogy megjelenjen az állomás neve.

Azután kattintson az időjárási megfigyelések és előrejelzések megtekintéséhez.

A térkép megváltoztatása: kattintson a fekete keresztel jelölt zöld gombra ráközelítéshez, a vonallal jelölt zöld gombra távolításhoz, vagy a zöld nyilakra a szomszédos térképek eléréséhez.


METAR-TAF: